Time;durP1;ratioP1;P1;durP2;ratioP2;P2;SDS_P1;SDS_P2;PMS_P1;PMS_P2;Temp;Humidity;BMP_temperature;BMP_pressure;BME280_temperature;BME280_humidity;BME280_pressure;Samples;Min_cycle;Max_cycle;Signal;HPM_P1;HPM_P2
2023/01/22 00:02:16;;;;;;;9.50;7.60;;;;;;;;;;102817;1335;42589;-39
2023/01/22 00:04:47;;;;;;;9.80;7.00;;;;;;;;;;103088;1331;39535;-39
2023/01/22 00:07:19;;;;;;;9.00;7.20;;;;;;;;;;103078;1331;41381;-38
2023/01/22 00:09:52;;;;;;;8.90;6.90;;;;;;;;;;103084;1331;44197;-39
2023/01/22 00:12:22;;;;;;;9.20;7.20;;;;;;;;;;103072;1330;42795;-39
2023/01/22 00:14:55;;;;;;;9.00;7.10;;;;;;;;;;102765;1331;39495;-39
2023/01/22 00:17:26;;;;;;;9.10;6.80;;;;;;;;;;102792;1349;42436;-39
2023/01/22 00:19:56;;;;;;;9.60;7.10;;;;;;;;;;102800;1333;44665;-39
2023/01/22 00:22:27;;;;;;;9.20;7.00;;;;;;;;;;102813;1333;42783;-39
2023/01/22 00:24:57;;;;;;;9.10;7.00;;;;;;;;;;103019;1330;41179;-39
2023/01/22 00:27:30;;;;;;;8.70;6.80;;;;;;;;;;103090;1330;41440;-39
2023/01/22 00:30:01;;;;;;;8.60;6.90;;;;;;;;;;103079;1330;44451;-39
2023/01/22 00:32:37;;;;;;;9.40;7.20;;;;;;;;;;103118;1331;44136;-39
2023/01/22 00:35:09;;;;;;;8.60;7.00;;;;;;;;;;102694;1331;175748;-39
2023/01/22 00:37:44;;;;;;;8.00;6.70;;;;;;;;;;102786;1334;41372;-39
2023/01/22 00:40:15;;;;;;;8.70;7.00;;;;;;;;;;102787;1334;45619;-39
2023/01/22 00:42:46;;;;;;;9.10;7.00;;;;;;;;;;102829;1334;44061;-39
2023/01/22 00:45:16;;;;;;;8.10;6.40;;;;;;;;;;102997;1330;38619;-39
2023/01/22 00:47:50;;;;;;;9.20;7.30;;;;;;;;;;103076;1330;41462;-39
2023/01/22 00:50:25;;;;;;;8.80;7.00;;;;;;;;;;103059;1337;44385;-39
2023/01/22 00:52:55;;;;;;;8.20;6.50;;;;;;;;;;103074;1331;42054;-39
2023/01/22 00:55:25;;;;;;;9.10;6.90;;;;;;;;;;102779;1333;39569;-40
2023/01/22 00:57:55;;;;;;;8.30;6.30;;;;;;;;;;102803;1341;40952;-39
2023/01/22 01:00:28;;;;;;;8.00;6.30;;;;;;;;;;102779;1334;44111;-39
2023/01/22 01:05:47;;;;;;;8.00;6.10;;;;;;;;;;103017;1331;39652;-39
2023/01/22 01:08:18;;;;;;;8.50;6.50;;;;;;;;;;103064;1330;40998;-39
2023/01/22 01:10:54;;;;;;;8.10;6.40;;;;;;;;;;103044;1331;44041;-39
2023/01/22 01:13:25;;;;;;;7.90;6.10;;;;;;;;;;103125;1329;44374;-39
2023/01/22 01:16:02;;;;;;;7.60;5.90;;;;;;;;;;102835;1331;39532;-39
2023/01/22 01:18:35;;;;;;;8.40;6.30;;;;;;;;;;102821;1333;41258;-39
2023/01/22 01:21:06;;;;;;;7.90;6.20;;;;;;;;;;102802;1334;44606;-39
2023/01/22 01:23:41;;;;;;;9.50;6.30;;;;;;;;;;102801;1334;42609;-39
2023/01/22 01:26:16;;;;;;;8.60;6.20;;;;;;;;;;103047;1331;39161;-39
2023/01/22 01:28:47;;;;;;;8.00;6.30;;;;;;;;;;103116;1331;42463;-39
2023/01/22 01:31:18;;;;;;;8.60;6.20;;;;;;;;;;103119;1331;45461;-39
2023/01/22 01:33:49;;;;;;;7.10;5.60;;;;;;;;;;103078;1330;42900;-39
2023/01/22 01:36:22;;;;;;;7.40;5.70;;;;;;;;;;102796;1333;39339;-39
2023/01/22 01:39:12;;;;;;;7.80;5.90;;;;;;;;;;102800;1333;41179;-41
2023/01/22 01:41:45;;;;;;;7.60;6.00;;;;;;;;;;102783;1334;43968;-39
2023/01/22 01:44:18;;;;;;;7.30;5.40;;;;;;;;;;102827;1334;42546;-39
2023/01/22 01:46:52;;;;;;;7.60;5.60;;;;;;;;;;103071;1329;45215;-39
2023/01/22 01:49:29;;;;;;;7.10;5.90;;;;;;;;;;103103;1329;40850;-40
2023/01/22 01:52:04;;;;;;;7.10;5.50;;;;;;;;;;103101;1331;44458;-40
2023/01/22 01:54:36;;;;;;;7.30;5.90;;;;;;;;;;103127;1330;43442;-40
2023/01/22 01:57:14;;;;;;;7.20;5.50;;;;;;;;;;102864;1331;45004;-40
2023/01/22 01:59:50;;;;;;;7.70;5.30;;;;;;;;;;102787;1334;40922;-40
2023/01/22 02:02:22;;;;;;;7.10;5.40;;;;;;;;;;102773;1335;44528;-40
2023/01/22 02:04:55;;;;;;;7.10;5.20;;;;;;;;;;102783;1334;42867;-40
2023/01/22 02:07:25;;;;;;;7.40;5.40;;;;;;;;;;102827;1334;45216;-40
2023/01/22 02:09:56;;;;;;;7.20;5.30;;;;;;;;;;102797;1335;42249;-40
2023/01/22 02:12:26;;;;;;;7.00;5.00;;;;;;;;;;102802;1334;44462;-40
2023/01/22 02:14:57;;;;;;;6.90;5.40;;;;;;;;;;102816;1333;44757;-40
2023/01/22 02:17:28;;;;;;;6.90;5.30;;;;;;;;;;103034;1331;39431;-41
2023/01/22 02:19:59;;;;;;;7.00;5.10;;;;;;;;;;103112;1330;41146;-41
2023/01/22 02:22:35;;;;;;;6.70;5.10;;;;;;;;;;103097;1330;44760;-40
2023/01/22 02:25:09;;;;;;;6.70;4.90;;;;;;;;;;103113;1329;44098;-42
2023/01/22 02:27:39;;;;;;;6.70;5.10;;;;;;;;;;102783;1334;39479;-40
2023/01/22 02:30:13;;;;;;;6.90;5.10;;;;;;;;;;102799;1335;41381;-40
2023/01/22 02:32:46;;;;;;;6.80;4.70;;;;;;;;;;102778;1333;45580;-40
2023/01/22 02:35:19;;;;;;;6.80;4.80;;;;;;;;;;102793;1333;42806;-40
2023/01/22 02:37:50;;;;;;;6.40;4.70;;;;;;;;;;102948;1330;175526;-41
2023/01/22 02:40:21;;;;;;;6.70;4.80;;;;;;;;;;102977;1334;175778;-40
2023/01/22 02:42:54;;;;;;;6.40;4.70;;;;;;;;;;103091;1330;44658;-40
2023/01/22 02:45:25;;;;;;;6.60;4.80;;;;;;;;;;103102;1330;42609;-42
2023/01/22 02:47:56;;;;;;;6.80;5.10;;;;;;;;;;102814;1334;40688;-42
2023/01/22 02:50:28;;;;;;;6.40;4.60;;;;;;;;;;102765;1334;40966;-41
2023/01/22 02:53:01;;;;;;;6.50;4.70;;;;;;;;;;102774;1334;43938;-41
2023/01/22 02:55:34;;;;;;;6.30;4.90;;;;;;;;;;102832;1334;44320;-40
2023/01/22 02:58:04;;;;;;;6.50;5.00;;;;;;;;;;103032;1330;39265;-40
2023/01/22 03:00:35;;;;;;;6.90;5.10;;;;;;;;;;103097;1331;41382;-40
2023/01/22 03:03:17;;;;;;;6.70;4.80;;;;;;;;;;102714;1331;175767;-40
2023/01/22 03:05:51;;;;;;;6.70;4.80;;;;;;;;;;103068;1338;42569;-40
2023/01/22 03:08:25;;;;;;;6.50;4.90;;;;;;;;;;102831;1331;39564;-41
2023/01/22 03:10:59;;;;;;;6.20;4.50;;;;;;;;;;102793;1334;42376;-40
2023/01/22 03:21:58;;;;;;;6.50;4.50;;;;;;;;;;103076;1331;40862;-40
2023/01/22 03:24:31;;;;;;;6.40;4.60;;;;;;;;;;103074;1330;45837;-40
2023/01/22 03:27:05;;;;;;;6.40;4.70;;;;;;;;;;103039;1331;42738;-40
2023/01/22 03:29:41;;;;;;;6.00;4.60;;;;;;;;;;102807;1334;45446;-41
2023/01/22 03:32:18;;;;;;;6.30;4.50;;;;;;;;;;102779;1334;40880;-41
2023/01/22 03:34:49;;;;;;;6.10;4.50;;;;;;;;;;102809;1334;45662;-40
2023/01/22 03:37:19;;;;;;;5.90;4.30;;;;;;;;;;102524;1334;42964;-41
2023/01/22 03:39:49;;;;;;;6.00;4.30;;;;;;;;;;103122;1332;45280;-40
2023/01/22 03:42:24;;;;;;;6.20;4.30;;;;;;;;;;103122;1329;41334;-40
2023/01/22 03:45:00;;;;;;;5.80;4.30;;;;;;;;;;103101;1330;43965;-40
2023/01/22 03:47:30;;;;;;;6.00;4.30;;;;;;;;;;103065;1330;43224;-40
2023/01/22 03:50:07;;;;;;;5.70;4.20;;;;;;;;;;102764;1334;45508;-40
2023/01/22 03:52:37;;;;;;;6.10;4.10;;;;;;;;;;102801;1334;41316;-40
2023/01/22 03:55:09;;;;;;;6.10;4.00;;;;;;;;;;102796;1334;44474;-40
2023/01/22 03:57:38;;;;;;;;;;;;;;;;;;102789;1340;42565;-40
2023/01/22 04:00:12;;;;;;;5.90;4.40;;;;;;;;;;103063;1329;38349;-40
2023/01/22 04:02:43;;;;;;;5.80;4.20;;;;;;;;;;103141;1331;41303;-40
2023/01/22 04:05:17;;;;;;;5.80;4.20;;;;;;;;;;103111;1328;46527;-40
2023/01/22 04:07:53;;;;;;;5.80;4.10;;;;;;;;;;103089;1331;42661;-40
2023/01/22 04:10:26;;;;;;;5.50;4.00;;;;;;;;;;102762;1333;45064;-40
2023/01/22 04:12:56;;;;;;;5.90;4.10;;;;;;;;;;102542;1334;41422;-40
2023/01/22 04:15:27;;;;;;;6.10;3.90;;;;;;;;;;102772;1334;45509;-40
2023/01/22 04:17:57;;;;;;;5.80;4.30;;;;;;;;;;102783;1333;44786;-40
2023/01/22 04:20:30;;;;;;;5.50;3.80;;;;;;;;;;103059;1331;39530;-40
2023/01/22 04:23:00;;;;;;;5.50;3.70;;;;;;;;;;103099;1331;41021;-40
2023/01/22 04:25:30;;;;;;;5.40;3.70;;;;;;;;;;103116;1331;43961;-40
2023/01/22 04:28:01;;;;;;;5.80;4.10;;;;;;;;;;103098;1330;42952;-40
2023/01/22 04:30:35;;;;;;;5.60;3.80;;;;;;;;;;102765;1331;39632;-41
2023/01/22 04:33:08;;;;;;;4.90;3.50;;;;;;;;;;102814;1333;42377;-40
2023/01/22 04:35:41;;;;;;;5.50;3.70;;;;;;;;;;102786;1334;45594;-40
2023/01/22 04:38:15;;;;;;;5.40;3.80;;;;;;;;;;102798;1334;42844;-40
2023/01/22 04:40:47;;;;;;;5.10;3.40;;;;;;;;;;103050;1331;39605;-40
2023/01/22 04:43:18;;;;;;;5.60;3.70;;;;;;;;;;103098;1331;41325;-40
2023/01/22 04:45:51;;;;;;;6.20;4.10;;;;;;;;;;102835;1331;325980;-40
2023/01/22 04:48:21;;;;;;;6.00;4.20;;;;;;;;;;102852;1333;45418;-41
2023/01/22 04:50:53;;;;;;;7.00;4.60;;;;;;;;;;102755;1333;40005;-40
2023/01/22 04:53:24;;;;;;;7.10;4.90;;;;;;;;;;102803;1334;41269;-41
2023/01/22 04:55:59;;;;;;;7.00;4.50;;;;;;;;;;102774;1333;44505;-40
2023/01/22 04:58:34;;;;;;;7.40;5.00;;;;;;;;;;102795;1333;43129;-40
2023/01/22 05:01:08;;;;;;;7.00;5.20;;;;;;;;;;103031;1331;39838;-41
2023/01/22 05:03:42;;;;;;;7.30;4.80;;;;;;;;;;103070;1330;42282;-40
2023/01/22 05:06:14;;;;;;;7.70;5.20;;;;;;;;;;103077;1331;44079;-40
2023/01/22 05:08:46;;;;;;;8.00;5.10;;;;;;;;;;103004;1331;196755;-40
2023/01/22 05:11:16;;;;;;;7.50;5.00;;;;;;;;;;102790;1333;39440;-40
2023/01/22 05:13:47;;;;;;;7.10;4.90;;;;;;;;;;102768;1333;41443;-40
2023/01/22 05:16:17;;;;;;;6.60;4.80;;;;;;;;;;102759;1333;46250;-40
2023/01/22 05:18:48;;;;;;;6.60;4.90;;;;;;;;;;102781;1334;42755;-41
2023/01/22 05:21:18;;;;;;;7.30;5.10;;;;;;;;;;103001;1331;39350;-40
2023/01/22 05:23:48;;;;;;;7.90;5.00;;;;;;;;;;103096;1331;41092;-40
2023/01/22 05:26:18;;;;;;;7.60;4.90;;;;;;;;;;103077;1330;44515;-40
2023/01/22 05:28:49;;;;;;;9.40;5.80;;;;;;;;;;103095;1330;45374;-40
2023/01/22 05:31:19;;;;;;;7.20;4.80;;;;;;;;;;102855;1333;39206;-41
2023/01/22 05:33:56;;;;;;;7.10;5.10;;;;;;;;;;102761;1334;41103;-40
2023/01/22 05:36:26;;;;;;;6.60;4.50;;;;;;;;;;102799;1334;44805;-40
2023/01/22 05:38:56;;;;;;;7.20;4.90;;;;;;;;;;102791;1334;42481;-40
2023/01/22 05:41:27;;;;;;;7.00;4.70;;;;;;;;;;102963;1329;38481;-40
2023/01/22 05:43:58;;;;;;;7.20;4.80;;;;;;;;;;103080;1330;41830;-41
2023/01/22 05:46:28;;;;;;;7.00;4.80;;;;;;;;;;103060;1331;44448;-40
2023/01/22 05:49:03;;;;;;;6.90;4.60;;;;;;;;;;103125;1330;44141;-40
2023/01/22 05:51:35;;;;;;;6.10;4.30;;;;;;;;;;102860;1334;39555;-40
2023/01/22 05:54:06;;;;;;;6.70;4.70;;;;;;;;;;102751;1335;41393;-40
2023/01/22 05:56:39;;;;;;;6.60;4.80;;;;;;;;;;102753;1334;44511;-40
2023/01/22 05:59:10;;;;;;;6.80;4.50;;;;;;;;;;102788;1333;42865;-40
2023/01/22 06:01:41;;;;;;;6.50;4.30;;;;;;;;;;102790;1334;39819;-40
2023/01/22 06:04:12;;;;;;;7.00;4.30;;;;;;;;;;102832;1333;41498;-40
2023/01/22 06:06:49;;;;;;;6.40;4.60;;;;;;;;;;102768;1333;47311;-41
2023/01/22 06:09:20;;;;;;;6.70;4.70;;;;;;;;;;102782;1334;45583;-41
2023/01/22 06:11:52;;;;;;;6.60;4.60;;;;;;;;;;102925;1331;38347;-40
2023/01/22 06:14:22;;;;;;;6.40;4.50;;;;;;;;;;103086;1330;41052;-40
2023/01/22 06:16:53;;;;;;;6.30;4.40;;;;;;;;;;103079;1331;44562;-40
2023/01/22 06:19:23;;;;;;;6.30;4.40;;;;;;;;;;103045;1331;44347;-40
2023/01/22 06:21:58;;;;;;;6.70;4.30;;;;;;;;;;102897;1331;39787;-41
2023/01/22 06:24:30;;;;;;;6.80;4.30;;;;;;;;;;102755;1333;41214;-40
2023/01/22 06:27:05;;;;;;;6.00;4.10;;;;;;;;;;102777;1334;44534;-40
2023/01/22 06:29:35;;;;;;;6.40;4.40;;;;;;;;;;102777;1334;43040;-40
2023/01/22 06:32:08;;;;;;;6.10;4.40;;;;;;;;;;102930;1332;39524;-40
2023/01/22 06:34:39;;;;;;;6.20;4.30;;;;;;;;;;103092;1331;42100;-40
2023/01/22 06:37:10;;;;;;;5.80;3.90;;;;;;;;;;102975;1331;175768;-40
2023/01/22 06:39:43;;;;;;;5.80;4.20;;;;;;;;;;103046;1331;42982;-40
2023/01/22 06:42:14;;;;;;;6.10;3.90;;;;;;;;;;102900;1331;39273;-42
2023/01/22 06:44:46;;;;;;;6.20;4.20;;;;;;;;;;102777;1334;41548;-41
2023/01/22 06:47:17;;;;;;;5.90;4.00;;;;;;;;;;102782;1334;45378;-40
2023/01/22 06:49:50;;;;;;;6.30;4.20;;;;;;;;;;102750;1333;44084;-40
2023/01/22 06:52:19;;;;;;;6.00;3.80;;;;;;;;;;102891;1331;39531;-40
2023/01/22 06:54:49;;;;;;;6.30;4.40;;;;;;;;;;103092;1331;40504;-41
2023/01/22 06:57:20;;;;;;;6.40;4.10;;;;;;;;;;103079;1331;44557;-40
2023/01/22 06:59:56;;;;;;;6.30;4.10;;;;;;;;;;103065;1331;42785;-40
2023/01/22 07:02:26;;;;;;;6.20;4.00;;;;;;;;;;102911;1334;39763;-42
2023/01/22 07:04:56;;;;;;;6.30;4.30;;;;;;;;;;102776;1333;41201;-41
2023/01/22 07:07:26;;;;;;;6.00;4.20;;;;;;;;;;102820;1334;45206;-40
2023/01/22 07:09:57;;;;;;;6.50;4.30;;;;;;;;;;102805;1334;42928;-40
2023/01/22 07:12:27;;;;;;;6.50;4.30;;;;;;;;;;102847;1331;39743;-40
2023/01/22 07:14:59;;;;;;;5.80;4.20;;;;;;;;;;103095;1331;41134;-41
2023/01/22 07:17:29;;;;;;;6.20;4.50;;;;;;;;;;102818;1331;46505;-41
2023/01/22 07:19:59;;;;;;;6.70;4.60;;;;;;;;;;103066;1331;43972;-40
2023/01/22 07:22:38;;;;;;;6.30;4.40;;;;;;;;;;102987;1330;39542;-41
2023/01/22 07:25:09;;;;;;;6.10;4.40;;;;;;;;;;102806;1334;40907;-41
2023/01/22 07:27:40;;;;;;;6.30;4.50;;;;;;;;;;102790;1334;43877;-40
2023/01/22 07:30:13;;;;;;;6.40;4.50;;;;;;;;;;102793;1334;42986;-40
2023/01/22 07:32:46;;;;;;;6.00;4.60;;;;;;;;;;102863;1331;39484;-40
2023/01/22 07:35:16;;;;;;;6.20;4.40;;;;;;;;;;103090;1330;40870;-40
2023/01/22 07:37:58;;;;;;;5.80;4.40;;;;;;;;;;103078;1331;43921;-41
2023/01/22 07:40:29;;;;;;;5.80;4.10;;;;;;;;;;103071;1330;44141;-40
2023/01/22 07:43:01;;;;;;;5.90;4.40;;;;;;;;;;102975;1334;40728;-41
2023/01/22 07:45:32;;;;;;;6.10;4.20;;;;;;;;;;102759;1334;41042;-40
2023/01/22 07:48:02;;;;;;;5.80;4.10;;;;;;;;;;102781;1333;43741;-40
2023/01/22 07:50:35;;;;;;;6.30;4.40;;;;;;;;;;102767;1333;44017;-41
2023/01/22 07:53:05;;;;;;;6.20;4.10;;;;;;;;;;102866;1329;39491;-41
2023/01/22 07:55:38;;;;;;;6.00;4.30;;;;;;;;;;103087;1329;41087;-40
2023/01/22 07:58:12;;;;;;;6.50;4.50;;;;;;;;;;103094;1329;44196;-41
2023/01/22 08:00:43;;;;;;;5.90;4.50;;;;;;;;;;103116;1331;42666;-40
2023/01/22 08:03:19;;;;;;;5.90;4.20;;;;;;;;;;102972;1331;40615;-40
2023/01/22 08:05:49;;;;;;;5.80;4.40;;;;;;;;;;102771;1334;41066;-41
2023/01/22 08:08:20;;;;;;;5.90;4.10;;;;;;;;;;102790;1334;45217;-40
2023/01/22 08:10:57;;;;;;;5.90;4.30;;;;;;;;;;102787;1333;42772;-41
2023/01/22 08:13:32;;;;;;;5.80;4.10;;;;;;;;;;102844;1331;39327;-41
2023/01/22 08:16:05;;;;;;;5.90;4.40;;;;;;;;;;103046;1330;41217;-40
2023/01/22 08:18:35;;;;;;;5.70;4.30;;;;;;;;;;103073;1331;43903;-40
2023/01/22 08:21:08;;;;;;;5.80;4.00;;;;;;;;;;103068;1331;44279;-40
2023/01/22 08:23:38;;;;;;;6.00;4.10;;;;;;;;;;102954;1332;40857;-40
2023/01/22 08:26:11;;;;;;;5.50;4.10;;;;;;;;;;102557;1334;42354;-41
2023/01/22 08:28:44;;;;;;;5.90;4.20;;;;;;;;;;102805;1333;44920;-41
2023/01/22 08:31:14;;;;;;;6.00;4.30;;;;;;;;;;102751;1341;43115;-40
2023/01/22 08:34:00;;;;;;;5.70;4.00;;;;;;;;;;102862;1329;39682;-40
2023/01/22 08:36:32;;;;;;;5.40;3.80;;;;;;;;;;103104;1330;41369;-41
2023/01/22 08:39:03;;;;;;;5.90;4.20;;;;;;;;;;103109;1329;44666;-40
2023/01/22 08:41:33;;;;;;;5.70;4.10;;;;;;;;;;103123;1329;43185;-40
2023/01/22 08:44:06;;;;;;;6.00;4.10;;;;;;;;;;102965;1333;39579;-41
2023/01/22 08:46:39;;;;;;;5.60;4.30;;;;;;;;;;102804;1334;40943;-40
2023/01/22 08:49:12;;;;;;;5.60;4.10;;;;;;;;;;102771;1333;45803;-41
2023/01/22 08:51:49;;;;;;;5.50;3.90;;;;;;;;;;102805;1333;42914;-40
2023/01/22 08:54:23;;;;;;;5.80;4.00;;;;;;;;;;102884;1331;39593;-41
2023/01/22 08:56:55;;;;;;;6.10;4.10;;;;;;;;;;103116;1331;43716;-40
2023/01/22 08:59:27;;;;;;;5.70;4.00;;;;;;;;;;103113;1330;46335;-40
2023/01/22 09:02:01;;;;;;;5.80;4.00;;;;;;;;;;103102;1330;42778;-40
2023/01/22 09:04:36;;;;;;;5.60;3.90;;;;;;;;;;103008;1331;39593;-41
2023/01/22 09:07:14;;;;;;;5.60;3.70;;;;;;;;;;102791;1333;41430;-41
2023/01/22 09:09:46;;;;;;;5.70;4.00;;;;;;;;;;102788;1334;44656;-41
2023/01/22 09:12:17;;;;;;;5.00;3.60;;;;;;;;;;102786;1334;43084;-41
2023/01/22 09:14:47;;;;;;;5.40;3.70;;;;;;;;;;102846;1330;39984;-40
2023/01/22 09:17:17;;;;;;;5.40;3.80;;;;;;;;;;103115;1329;41378;-41
2023/01/22 09:19:47;;;;;;;6.30;4.20;;;;;;;;;;103088;1330;45588;-40
2023/01/22 09:22:19;;;;;;;6.00;4.20;;;;;;;;;;103124;1331;42997;-41
2023/01/22 09:24:49;;;;;;;6.90;4.10;;;;;;;;;;102976;1334;40623;-42
2023/01/22 09:27:19;;;;;;;5.70;4.00;;;;;;;;;;102781;1334;41342;-40
2023/01/22 09:29:49;;;;;;;6.60;4.40;;;;;;;;;;102793;1334;44233;-41
2023/01/22 09:32:20;;;;;;;8.50;4.90;;;;;;;;;;102779;1333;42884;-41
2023/01/22 09:34:50;;;;;;;6.90;4.50;;;;;;;;;;102816;1331;39625;-40
2023/01/22 09:37:24;;;;;;;7.20;4.60;;;;;;;;;;103080;1331;42497;-40
2023/01/22 09:39:53;;;;;;;7.00;5.20;;;;;;;;;;103062;1331;44284;-41
2023/01/22 09:42:31;;;;;;;9.40;7.40;;;;;;;;;;103055;1331;43461;-41
2023/01/22 09:45:10;;;;;;;9.20;7.20;;;;;;;;;;102975;1330;39254;-40
2023/01/22 09:47:46;;;;;;;9.90;7.40;;;;;;;;;;102780;1334;40985;-41
2023/01/22 09:50:22;;;;;;;9.90;8.70;;;;;;;;;;102770;1334;44193;-41
2023/01/22 09:52:56;;;;;;;10.40;8.90;;;;;;;;;;102684;1334;175829;-41
2023/01/22 09:55:38;;;;;;;10.10;9.00;;;;;;;;;;102842;1330;39511;-41
2023/01/22 09:58:20;;;;;;;10.50;9.00;;;;;;;;;;103089;1329;42352;-41
2023/01/22 10:00:57;;;;;;;11.10;9.90;;;;;;;;;;103085;1330;44155;-41
2023/01/22 10:03:36;;;;;;;10.40;9.30;;;;;;;;;;103084;1330;44006;-41
2023/01/22 10:06:17;;;;;;;10.40;9.30;;;;;;;;;;102897;1331;39309;-41
2023/01/22 10:08:56;;;;;;;10.60;9.40;;;;;;;;;;102798;1333;41521;-41
2023/01/22 10:11:27;;;;;;;10.40;8.60;;;;;;;;;;102784;1334;45679;-41
2023/01/22 10:14:00;;;;;;;9.60;8.50;;;;;;;;;;102780;1334;42902;-41
2023/01/22 10:16:37;;;;;;;10.40;8.40;;;;;;;;;;102906;1330;39684;-41
2023/01/22 10:19:18;;;;;;;10.90;8.20;;;;;;;;;;103105;1331;41111;-42
2023/01/22 10:21:56;;;;;;;9.70;8.60;;;;;;;;;;103082;1331;44078;-41
2023/01/22 10:24:29;;;;;;;10.90;8.80;;;;;;;;;;103114;1330;42869;-41
2023/01/22 10:27:10;;;;;;;10.00;7.90;;;;;;;;;;102833;1333;41133;-40
2023/01/22 10:29:40;;;;;;;9.70;8.00;;;;;;;;;;102834;1334;41092;-41
2023/01/22 10:32:22;;;;;;;9.30;7.90;;;;;;;;;;102782;1334;44426;-42
2023/01/22 10:35:06;;;;;;;9.00;8.10;;;;;;;;;;102676;1333;175693;-41
2023/01/22 10:37:47;;;;;;;9.70;8.30;;;;;;;;;;103038;1331;39245;-41
2023/01/22 10:40:26;;;;;;;8.70;7.50;;;;;;;;;;103013;1331;41117;-41
2023/01/22 10:43:06;;;;;;;9.10;7.80;;;;;;;;;;103090;1329;45539;-41
2023/01/22 10:45:36;;;;;;;8.40;7.40;;;;;;;;;;103086;1331;44622;-41
2023/01/22 10:48:15;;;;;;;8.50;7.20;;;;;;;;;;102770;1334;40646;-41
2023/01/22 10:50:46;;;;;;;9.20;7.20;;;;;;;;;;102531;1334;43412;-42
2023/01/22 10:53:32;;;;;;;7.90;7.10;;;;;;;;;;102784;1347;45282;-41
2023/01/22 10:56:13;;;;;;;8.20;6.80;;;;;;;;;;102766;1333;43110;-41
2023/01/22 10:58:48;;;;;;;9.80;7.40;;;;;;;;;;103083;1331;45906;-41
2023/01/22 11:01:31;;;;;;;7.70;6.90;;;;;;;;;;103116;1331;42401;-41
2023/01/22 11:04:13;;;;;;;8.20;7.00;;;;;;;;;;103123;1329;44024;-41
2023/01/22 11:06:48;;;;;;;8.40;6.90;;;;;;;;;;103029;1331;43931;-41
2023/01/22 11:09:23;;;;;;;8.80;6.50;;;;;;;;;;102761;1334;39336;-41
2023/01/22 11:12:06;;;;;;;7.70;6.60;;;;;;;;;;102821;1333;43179;-41
2023/01/22 11:14:39;;;;;;;8.20;6.90;;;;;;;;;;102763;1333;43963;-41
2023/01/22 11:17:21;;;;;;;8.10;6.50;;;;;;;;;;102851;1331;42743;-40
2023/01/22 11:20:00;;;;;;;7.40;6.40;;;;;;;;;;103004;1330;175729;-41
2023/01/22 11:22:38;;;;;;;7.90;6.30;;;;;;;;;;103094;1331;41543;-40
2023/01/22 11:25:12;;;;;;;7.80;6.40;;;;;;;;;;103071;1331;44275;-41
2023/01/22 11:28:03;;;;;;;8.00;6.10;;;;;;;;;;102933;1331;43062;-40
2023/01/22 11:30:52;;;;;;;7.60;6.50;;;;;;;;;;102469;1336;39526;-41
2023/01/22 11:33:50;;;;;;;7.90;6.40;;;;;;;;;;102816;1334;41032;-41
2023/01/22 11:36:32;;;;;;;7.70;6.30;;;;;;;;;;102727;1333;44757;-41
2023/01/22 11:39:15;;;;;;;7.70;6.40;;;;;;;;;;103004;1330;43059;-42
2023/01/22 11:42:07;;;;;;;7.70;6.40;;;;;;;;;;103086;1331;39499;-41
2023/01/22 11:44:57;;;;;;;9.10;6.40;;;;;;;;;;103096;1329;40732;-44
2023/01/22 11:48:00;;;;;;;8.80;6.20;;;;;;;;;;103019;1330;44232;-44
2023/01/22 11:50:41;;;;;;;9.30;6.40;;;;;;;;;;102765;1334;42929;-44
2023/01/22 11:53:38;;;;;;;8.30;6.00;;;;;;;;;;102803;1334;41874;-45
2023/01/22 11:56:33;;;;;;;8.70;5.80;;;;;;;;;;102777;1333;42214;-43
2023/01/22 11:59:13;;;;;;;8.90;6.30;;;;;;;;;;102966;1331;44448;-46
2023/01/22 12:02:20;;;;;;;9.00;6.20;;;;;;;;;;103098;1329;42517;-43
2023/01/22 12:05:12;;;;;;;8.20;5.90;;;;;;;;;;103091;1329;39374;-45
2023/01/22 12:08:13;;;;;;;10.40;6.40;;;;;;;;;;103029;1329;40847;-44
2023/01/22 12:11:25;;;;;;;7.70;6.00;;;;;;;;;;102757;1334;49928;-43
2023/01/22 12:14:28;;;;;;;11.50;6.30;;;;;;;;;;102762;1334;42711;-43
2023/01/22 12:17:10;;;;;;;8.60;6.00;;;;;;;;;;102756;1334;39449;-44
2023/01/22 12:20:06;;;;;;;;;;;;;;;;;;102961;1330;41179;-46
2023/01/22 12:22:44;;;;;;;8.50;6.20;;;;;;;;;;103084;1329;44690;-45
2023/01/22 12:25:32;;;;;;;7.80;5.80;;;;;;;;;;103073;1330;42823;-45
2023/01/22 12:28:12;;;;;;;7.80;5.80;;;;;;;;;;103109;1330;39269;-44
2023/01/22 12:30:54;;;;;;;8.40;6.00;;;;;;;;;;102789;1333;41020;-43
2023/01/22 12:33:25;;;;;;;;;;;;;;;;;;102850;1335;45626;-43
2023/01/22 12:36:00;;;;;;;8.40;6.10;;;;;;;;;;102785;1334;43343;-45
2023/01/22 12:38:42;;;;;;;8.10;6.10;;;;;;;;;;102752;1334;39317;-43
2023/01/22 12:41:43;;;;;;;8.10;6.40;;;;;;;;;;103216;1330;48121;-43
2023/01/22 12:44:33;;;;;;;7.50;5.90;;;;;;;;;;103097;1331;44163;-46
2023/01/22 12:47:12;;;;;;;7.80;6.30;;;;;;;;;;102820;1331;413958;-45
2023/01/22 12:49:50;;;;;;;8.20;6.60;;;;;;;;;;102963;1334;40440;-47
2023/01/22 12:52:35;;;;;;;9.10;6.80;;;;;;;;;;102808;1333;41381;-44
2023/01/22 12:55:29;;;;;;;8.80;6.80;;;;;;;;;;102788;1333;44425;-43
2023/01/22 12:58:00;;;;;;;8.70;6.80;;;;;;;;;;102724;1333;42863;-43
2023/01/22 13:00:37;;;;;;;8.30;6.60;;;;;;;;;;102917;1329;40691;-43
2023/01/22 13:03:25;;;;;;;8.10;7.10;;;;;;;;;;103098;1329;43395;-46
2023/01/22 13:06:04;;;;;;;8.70;6.70;;;;;;;;;;103052;1341;45377;-44
2023/01/22 13:08:41;;;;;;;8.20;6.90;;;;;;;;;;103101;1330;44066;-43
2023/01/22 13:11:14;;;;;;;8.60;7.00;;;;;;;;;;102851;1333;39179;-45
2023/01/22 13:13:50;;;;;;;8.10;6.70;;;;;;;;;;102802;1334;42059;-43
2023/01/22 13:16:27;;;;;;;8.50;6.60;;;;;;;;;;102752;1333;44104;-46
2023/01/22 13:18:59;;;;;;;8.40;6.60;;;;;;;;;;102751;1334;42868;-45
2023/01/22 13:21:33;;;;;;;8.30;6.40;;;;;;;;;;102988;1331;40560;-45
2023/01/22 13:24:10;;;;;;;8.90;6.60;;;;;;;;;;103000;1331;196627;-44
2023/01/22 13:26:51;;;;;;;8.50;6.80;;;;;;;;;;103062;1331;44051;-43
2023/01/22 13:29:26;;;;;;;8.60;7.40;;;;;;;;;;103111;1331;42744;-45
2023/01/22 13:31:59;;;;;;;11.10;8.70;;;;;;;;;;102763;1334;39223;-44
2023/01/22 13:34:33;;;;;;;10.90;9.30;;;;;;;;;;102789;1333;41078;-44
2023/01/22 13:37:21;;;;;;;11.50;9.60;;;;;;;;;;102782;1334;43909;-46
2023/01/22 13:39:53;;;;;;;11.80;9.80;;;;;;;;;;102760;1333;42830;-47
2023/01/22 13:42:28;;;;;;;11.90;9.70;;;;;;;;;;103082;1330;46101;-46
2023/01/22 13:45:03;;;;;;;11.70;9.90;;;;;;;;;;103084;1330;41018;-43
2023/01/22 13:47:35;;;;;;;11.70;10.50;;;;;;;;;;103105;1341;44030;-46
2023/01/22 13:50:20;;;;;;;11.90;10.30;;;;;;;;;;103096;1331;42993;-41
2023/01/22 13:52:51;;;;;;;12.60;9.90;;;;;;;;;;102887;1333;44961;-41
2023/01/22 13:55:25;;;;;;;12.30;10.40;;;;;;;;;;102796;1340;41275;-41
2023/01/22 13:57:58;;;;;;;13.30;10.50;;;;;;;;;;102744;1334;44418;-42
2023/01/22 14:00:35;;;;;;;12.10;10.10;;;;;;;;;;102772;1333;42897;-43
2023/01/22 14:03:23;;;;;;;12.80;10.00;;;;;;;;;;103043;1331;45296;-42
2023/01/22 14:06:08;;;;;;;11.60;9.40;;;;;;;;;;103078;1330;41657;-41
2023/01/22 14:08:50;;;;;;;12.60;9.30;;;;;;;;;;103071;1330;43795;-42
2023/01/22 14:11:21;;;;;;;12.00;9.70;;;;;;;;;;102985;1330;42956;-40
2023/01/22 14:13:55;;;;;;;12.30;9.10;;;;;;;;;;102802;1334;40819;-42
2023/01/22 14:16:28;;;;;;;11.20;8.90;;;;;;;;;;102800;1334;41047;-41
2023/01/22 14:19:02;;;;;;;11.40;8.80;;;;;;;;;;102758;1333;43965;-42
2023/01/22 14:21:34;;;;;;;11.20;8.60;;;;;;;;;;102796;1331;42580;-41
2023/01/22 14:24:08;;;;;;;10.70;8.10;;;;;;;;;;103099;1331;39383;-40
2023/01/22 14:26:40;;;;;;;;;;;;;;;;;;103013;1336;175736;-45
2023/01/22 14:29:10;;;;;;;11.30;7.70;;;;;;;;;;103096;1331;44804;-44
2023/01/22 14:31:43;;;;;;;11.40;8.00;;;;;;;;;;103031;1331;42844;-43
2023/01/22 14:34:14;;;;;;;10.30;7.90;;;;;;;;;;102801;1333;40463;-45
2023/01/22 14:36:48;;;;;;;11.00;7.90;;;;;;;;;;102810;1334;41230;-43
2023/01/22 14:39:18;;;;;;;10.30;7.70;;;;;;;;;;102760;1334;44450;-44
2023/01/22 14:41:50;;;;;;;10.10;7.70;;;;;;;;;;102789;1327;43294;-40
2023/01/22 14:44:19;;;;;;;;;;;;;;;;;;103300;1327;39525;-43
2023/01/22 14:46:53;;;;;;;10.50;7.10;;;;;;;;;;103208;1328;40448;-41
2023/01/22 14:49:26;;;;;;;9.10;6.90;;;;;;;;;;103259;1328;44241;-38
2023/01/22 14:52:01;;;;;;;9.60;7.00;;;;;;;;;;103262;1327;42779;-42
2023/01/22 14:54:37;;;;;;;9.30;7.20;;;;;;;;;;102872;1331;40830;-43
2023/01/22 14:57:12;;;;;;;9.90;6.80;;;;;;;;;;102794;1331;40958;-46
2023/01/22 14:59:45;;;;;;;9.50;6.90;;;;;;;;;;102835;1334;43998;-37
2023/01/22 15:02:15;;;;;;;9.80;6.60;;;;;;;;;;102878;1328;43164;-43
2023/01/22 15:04:48;;;;;;;8.80;7.00;;;;;;;;;;103332;1327;39922;-53
2023/01/22 15:07:24;;;;;;;10.10;6.90;;;;;;;;;;103283;1328;42214;-49
2023/01/22 15:09:59;;;;;;;9.30;7.00;;;;;;;;;;103264;1327;45069;-44
2023/01/22 15:12:30;;;;;;;9.00;6.80;;;;;;;;;;103259;1328;44070;-39
2023/01/22 15:15:00;;;;;;;9.90;6.90;;;;;;;;;;103097;1328;39193;-41
2023/01/22 15:17:31;;;;;;;9.50;6.60;;;;;;;;;;103171;1331;40763;-38
2023/01/22 15:20:04;;;;;;;9.30;7.00;;;;;;;;;;102870;1329;45416;-40
2023/01/22 15:22:34;;;;;;;8.90;6.60;;;;;;;;;;103318;1328;42711;-37
2023/01/22 15:25:07;;;;;;;9.20;6.80;;;;;;;;;;103461;1327;38202;-39